Time;durP1;ratioP1;P1;durP2;ratioP2;P2;SDS_P1;SDS_P2;PMS_P1;PMS_P2;Temp;Humidity;BMP_temperature;BMP_pressure;BME280_temperature;BME280_humidity;BME280_pressure;Samples;Min_cycle;Max_cycle;Signal;HPM_P1;HPM_P2
2022/07/12 00:00:16;;;;;;;5.28;4.57;;;;;;;15.95;100.00;102455.69;5011048;28;20128;-32
2022/07/12 00:02:44;;;;;;;6.53;5.88;;;;;;;15.95;100.00;102469.75;5011868;28;20041;-36
2022/07/12 00:05:12;;;;;;;6.60;5.63;;;;;;;15.94;100.00;102465.25;5011634;28;20060;-34
2022/07/12 00:07:39;;;;;;;6.30;5.65;;;;;;;15.93;100.00;102470.03;5011097;28;20088;-37
2022/07/12 00:10:09;;;;;;;5.07;4.55;;;;;;;15.92;100.00;102462.75;5011809;28;20121;-38
2022/07/12 00:12:38;;;;;;;5.25;4.72;;;;;;;15.91;100.00;102463.03;5010823;28;20046;-32
2022/07/12 00:15:07;;;;;;;6.50;5.45;;;;;;;15.91;100.00;102466.69;5011714;28;20042;-32
2022/07/12 00:17:35;;;;;;;6.25;5.43;;;;;;;15.91;100.00;102479.94;5007572;28;20060;-36
2022/07/12 00:20:03;;;;;;;6.10;5.32;;;;;;;15.89;100.00;102474.59;5010300;28;20053;-36
2022/07/12 00:22:31;;;;;;;5.47;4.93;;;;;;;15.89;100.00;102474.59;5011186;28;20049;-32
2022/07/12 00:24:59;;;;;;;6.90;5.68;;;;;;;15.88;100.00;102477.69;5011442;28;20042;-32
2022/07/12 00:27:29;;;;;;;6.35;5.75;;;;;;;15.86;100.00;102475.16;5010717;28;20061;-39
2022/07/12 00:29:57;;;;;;;6.88;5.75;;;;;;;15.83;100.00;102476.59;5014834;28;20046;-32
2022/07/12 00:32:25;;;;;;;5.60;5.00;;;;;;;15.83;100.00;102475.75;5011346;28;20046;-40
2022/07/12 00:34:52;;;;;;;6.95;6.25;;;;;;;15.82;100.00;102486.19;5010843;28;20056;-32
2022/07/12 00:37:20;;;;;;;6.63;5.88;;;;;;;15.82;100.00;102483.38;5011239;28;20056;-32
2022/07/12 00:39:48;;;;;;;6.80;5.90;;;;;;;15.82;100.00;102474.91;5011499;28;20112;-32
2022/07/12 00:42:16;;;;;;;6.82;5.78;;;;;;;15.83;100.00;102479.41;5010761;28;20137;-39
2022/07/12 00:44:46;;;;;;;5.45;4.65;;;;;;;15.83;100.00;102470.13;5011628;28;20099;-38
2022/07/12 00:47:26;;;;;;;5.00;4.50;;;;;;;15.83;100.00;102476.59;5010592;28;20148;-31
2022/07/12 00:49:54;;;;;;;6.75;5.45;;;;;;;15.80;100.00;102471.56;5015771;28;20054;-38
2022/07/12 00:52:23;;;;;;;6.43;5.72;;;;;;;15.80;100.00;102470.72;5010860;28;20097;-35
2022/07/12 00:54:51;;;;;;;5.95;5.35;;;;;;;15.81;100.00;102464.78;5010866;28;20069;-36
2022/07/12 00:57:19;;;;;;;5.00;4.10;;;;;;;15.83;100.00;102464.50;5010232;28;20127;-39
2022/07/12 00:59:48;;;;;;;6.05;5.30;;;;;;;15.82;100.00;102466.47;5011380;28;20041;-40
2022/07/12 01:02:16;;;;;;;6.68;5.82;;;;;;;15.80;100.00;102460.28;5010526;28;20133;-32
2022/07/12 01:04:46;;;;;;;7.15;6.07;;;;;;;15.79;100.00;102469.03;5011091;28;20512;-32
2022/07/12 01:07:16;;;;;;;5.80;5.07;;;;;;;15.78;100.00;102467.38;5011380;28;20056;-41
2022/07/12 01:09:44;;;;;;;5.65;5.05;;;;;;;15.77;100.00;102465.69;5013134;28;20081;-37
2022/07/12 01:12:12;;;;;;;4.15;3.75;;;;;;;15.76;100.00;102464.03;5014815;28;20364;-32
2022/07/12 01:14:41;;;;;;;5.03;4.53;;;;;;;15.75;100.00;102459.53;5014501;28;20049;-36
2022/07/12 01:17:10;;;;;;;5.70;4.82;;;;;;;15.73;100.00;102450.53;5013874;28;20487;-33
2022/07/12 01:19:39;;;;;;;4.85;4.30;;;;;;;15.73;100.00;102447.72;5014323;28;20518;-33
2022/07/12 01:22:10;;;;;;;6.03;5.40;;;;;;;15.73;100.00;102447.72;5014919;28;20403;-34
2022/07/12 01:24:39;;;;;;;7.10;6.15;;;;;;;15.73;100.00;102447.72;5013899;28;20053;-38
2022/07/12 01:27:08;;;;;;;6.10;5.32;;;;;;;15.76;100.00;102441.50;5014741;28;20137;-33
2022/07/12 01:29:36;;;;;;;6.93;5.63;;;;;;;15.78;100.00;102431.63;5013816;28;20076;-34
2022/07/12 01:34:48;;;;;;;7.00;4.53;;;;;;;15.80;100.00;102451.00;5014002;28;20046;-37
2022/07/12 01:37:17;;;;;;;6.28;5.05;;;;;;;15.80;100.00;102457.47;5016265;28;20060;-40
2022/07/12 01:39:48;;;;;;;6.85;6.15;;;;;;;15.80;100.00;102460.28;5014005;28;20042;-34
2022/07/12 01:42:16;;;;;;;6.15;4.50;;;;;;;15.81;100.00;102461.13;5014244;28;20050;-38
2022/07/12 01:44:44;;;;;;;8.20;5.28;;;;;;;15.81;100.00;102466.75;5013350;28;20129;-35
2022/07/12 01:47:12;;;;;;;5.88;5.10;;;;;;;15.82;100.00;102460.00;5014321;28;20048;-33
2022/07/12 01:49:40;;;;;;;5.70;4.82;;;;;;;15.82;100.00;102457.19;5013794;28;20509;-33
2022/07/12 01:52:08;;;;;;;6.60;5.20;;;;;;;15.82;100.00;102468.44;5013165;28;20048;-33
2022/07/12 01:54:36;;;;;;;5.80;4.75;;;;;;;15.80;100.00;102463.09;5013772;28;20060;-38
2022/07/12 01:57:06;;;;;;;5.95;5.35;;;;;;;15.80;100.00;102459.44;5002793;28;20040;-33
2022/07/12 01:59:34;;;;;;;6.13;5.15;;;;;;;15.78;100.00;102462.59;5007685;28;20136;-33
2022/07/12 02:02:02;;;;;;;5.75;5.15;;;;;;;15.76;100.00;102464.88;5014334;28;20045;-34
2022/07/12 02:04:31;;;;;;;5.68;5.07;;;;;;;15.76;100.00;102467.69;5013381;28;20462;-34
2022/07/12 02:07:00;;;;;;;6.47;5.78;;;;;;;15.75;100.00;102465.16;5009756;28;20132;-37
2022/07/12 02:09:28;;;;;;;6.57;5.85;;;;;;;15.74;100.00;102466.28;5013464;28;20044;-40
2022/07/12 02:11:56;;;;;;;6.82;4.40;;;;;;;15.73;100.00;102456.16;5011963;28;20444;-38
2022/07/12 02:14:26;;;;;;;5.40;4.85;;;;;;;15.75;100.00;102459.53;5012980;28;20050;-34
2022/07/12 02:16:54;;;;;;;7.72;6.07;;;;;;;15.73;100.00;102445.75;5013492;28;20476;-33
2022/07/12 02:19:22;;;;;;;5.45;4.50;;;;;;;15.73;100.00;102442.94;5012869;28;20550;-34
2022/07/12 02:21:50;;;;;;;6.70;5.13;;;;;;;15.74;100.00;102443.78;5012687;28;20137;-38
2022/07/12 02:24:17;;;;;;;7.28;5.35;;;;;;;15.73;100.00;102436.47;4994429;28;20141;-38
2022/07/12 02:26:45;;;;;;;6.53;5.32;;;;;;;15.73;100.00;102436.47;5012619;28;20058;-33
2022/07/12 02:29:13;;;;;;;6.00;5.22;;;;;;;15.72;100.00;102441.25;5013676;28;20056;-38
2022/07/12 02:31:42;;;;;;;7.28;5.43;;;;;;;15.74;100.00;102441.78;5013035;28;20077;-34
2022/07/12 02:34:10;;;;;;;5.28;4.35;;;;;;;15.74;100.00;102455.03;5012467;28;20503;-41
2022/07/12 02:36:38;;;;;;;6.78;5.53;;;;;;;15.72;100.00;102462.94;5011810;28;20076;-43
2022/07/12 02:39:06;;;;;;;6.45;5.63;;;;;;;15.72;100.00;102457.28;5013513;28;20073;-37
2022/07/12 02:41:34;;;;;;;6.30;5.60;;;;;;;15.71;100.00;102458.44;5012402;28;20069;-38
2022/07/12 02:44:02;;;;;;;6.20;5.05;;;;;;;15.69;100.00;102453.09;5013269;28;20046;-38
2022/07/12 02:46:30;;;;;;;5.88;4.93;;;;;;;15.66;100.00;102452.84;5012584;28;20042;-34
2022/07/12 02:49:00;;;;;;;5.50;4.70;;;;;;;15.64;100.00;102453.13;5012323;28;20046;-35
2022/07/12 02:51:27;;;;;;;6.32;5.63;;;;;;;15.60;100.00;102449.22;5011767;28;20057;-33
2022/07/12 02:53:55;;;;;;;6.32;5.10;;;;;;;15.57;100.00;102451.81;5012384;28;20150;-33
2022/07/12 02:56:23;;;;;;;6.30;4.90;;;;;;;15.56;100.00;102452.94;5010612;28;20108;-38
2022/07/12 02:58:51;;;;;;;5.50;3.83;;;;;;;15.54;100.00;102455.16;5010897;28;20132;-33
2022/07/12 03:01:19;;;;;;;5.40;4.03;;;;;;;15.52;100.00;102461.94;5010592;28;20138;-34
2022/07/12 03:03:46;;;;;;;4.65;4.15;;;;;;;15.50;100.00;102464.19;5010377;28;20077;-42
2022/07/12 03:06:16;;;;;;;3.45;3.15;;;;;;;15.49;100.00;102470.13;5011062;28;20140;-32
2022/07/12 03:08:44;;;;;;;4.85;4.25;;;;;;;15.47;100.00;102473.22;5009099;28;20860;-37
2022/07/12 03:11:11;;;;;;;5.63;4.63;;;;;;;15.46;100.00;102465.91;5011593;28;20060;-32
2022/07/12 03:13:39;;;;;;;6.53;4.20;;;;;;;15.45;100.00;102471.81;5012037;28;20053;-37
2022/07/12 03:16:08;;;;;;;5.38;4.43;;;;;;;15.44;100.00;102472.97;5011716;28;20081;-40
2022/07/12 03:18:40;;;;;;;4.43;3.90;;;;;;;15.43;100.00;102474.94;5012245;28;20058;-32
2022/07/12 03:21:08;;;;;;;3.80;3.15;;;;;;;15.41;100.00;102463.13;5011679;28;20157;-36
2022/07/12 03:23:38;;;;;;;5.85;4.45;;;;;;;15.40;100.00;102467.06;5011142;28;20123;-40
2022/07/12 03:26:07;;;;;;;5.60;4.13;;;;;;;15.40;100.00;102463.41;5011589;28;20527;-31
2022/07/12 03:28:35;;;;;;;5.20;4.18;;;;;;;15.37;100.00;102456.44;5010976;28;20052;-35
2022/07/12 03:31:03;;;;;;;4.68;3.80;;;;;;;15.37;100.00;102456.44;5008831;28;20458;-32
2022/07/12 03:33:31;;;;;;;4.25;3.72;;;;;;;15.38;100.00;102460.09;5010814;28;20054;-33
2022/07/12 03:36:01;;;;;;;5.05;4.05;;;;;;;15.37;100.00;102461.22;5012006;28;20054;-39
2022/07/12 03:38:28;;;;;;;5.75;4.28;;;;;;;15.38;100.00;102457.28;5011127;28;20041;-34
2022/07/12 03:40:57;;;;;;;6.07;4.75;;;;;;;15.37;100.00;102464.88;5011037;28;20041;-33
2022/07/12 03:43:25;;;;;;;4.80;4.03;;;;;;;15.38;100.00;102458.09;5011668;28;20414;-32
2022/07/12 03:45:53;;;;;;;4.22;3.42;;;;;;;15.39;100.00;102461.72;5011859;28;20128;-33
2022/07/12 03:48:21;;;;;;;5.50;4.38;;;;;;;15.39;100.00;102459.75;5011635;28;20082;-33
2022/07/12 03:50:49;;;;;;;5.28;4.18;;;;;;;15.41;100.00;102462.28;5011069;28;20048;-35
2022/07/12 03:53:17;;;;;;;4.55;3.80;;;;;;;15.40;100.00;102469.88;5011514;28;20072;-32
2022/07/12 03:55:45;;;;;;;6.55;4.60;;;;;;;15.40;100.00;102469.88;5012055;28;20046;-32
2022/07/12 03:58:14;;;;;;;4.78;3.67;;;;;;;15.40;100.00;102472.69;5010907;28;20137;-33
2022/07/12 04:00:42;;;;;;;5.15;4.00;;;;;;;15.41;100.00;102476.34;5011660;28;20049;-32
2022/07/12 04:03:11;;;;;;;4.80;3.92;;;;;;;15.39;100.00;102467.34;5011778;28;20045;-36
2022/07/12 04:05:39;;;;;;;4.88;3.72;;;;;;;15.38;100.00;102471.34;5010551;28;20080;-34
2022/07/12 04:08:06;;;;;;;5.05;4.03;;;;;;;15.37;100.00;102472.47;5011579;28;20048;-33
2022/07/12 04:10:34;;;;;;;5.47;4.38;;;;;;;15.36;100.00;102471.63;5011412;28;20045;-34
2022/07/12 04:13:02;;;;;;;4.13;3.72;;;;;;;15.35;100.00;102457.84;5011381;28;20711;-32
2022/07/12 04:15:31;;;;;;;5.65;4.53;;;;;;;15.34;100.00;102457.00;5007713;28;20081;-33
2022/07/12 04:18:00;;;;;;;4.35;3.78;;;;;;;15.35;100.00;102461.50;5011413;28;20077;-34
2022/07/12 04:20:28;;;;;;;6.13;4.43;;;;;;;15.36;100.00;102454.75;5010696;28;20050;-37
2022/07/12 04:22:56;;;;;;;5.40;4.38;;;;;;;15.39;100.00;102458.91;5011439;28;20136;-33
2022/07/12 04:25:26;;;;;;;5.70;4.70;;;;;;;15.39;100.00;102458.91;4997735;28;20054;-32
2022/07/12 04:27:55;;;;;;;5.28;4.32;;;;;;;15.41;100.00;102451.88;5006915;28;20357;-32
2022/07/12 04:30:23;;;;;;;5.70;4.07;;;;;;;15.44;100.00;102462.53;5011204;28;20418;-34
2022/07/12 04:32:52;;;;;;;5.18;4.38;;;;;;;15.48;100.00;102465.63;5010843;28;20141;-34
2022/07/12 04:35:21;;;;;;;5.55;4.40;;;;;;;15.50;100.00;102467.00;5011122;28;20046;-40
2022/07/12 04:37:48;;;;;;;5.15;4.20;;;;;;;15.54;100.00;102472.06;5011701;28;20434;-40
2022/07/12 04:40:16;;;;;;;4.05;3.25;;;;;;;15.55;100.00;102470.91;5010598;28;20484;-38
2022/07/12 04:42:44;;;;;;;4.78;4.07;;;;;;;15.56;100.00;102465.03;5011650;28;20046;-39
2022/07/12 04:45:12;;;;;;;4.38;3.38;;;;;;;15.57;100.00;102463.06;5015038;28;20178;-34
2022/07/12 04:47:40;;;;;;;4.85;3.85;;;;;;;15.59;100.00;102481.31;5014453;28;20488;-34
2022/07/12 04:50:09;;;;;;;6.15;4.22;;;;;;;15.63;100.00;102473.13;5014903;28;20046;-33
2022/07/12 04:52:37;;;;;;;5.30;4.43;;;;;;;15.64;100.00;102470.00;5014791;28;20054;-32
2022/07/12 04:55:06;;;;;;;5.13;4.38;;;;;;;15.68;100.00;102473.94;5014559;28;20053;-32
2022/07/12 04:57:34;;;;;;;5.47;4.32;;;;;;;15.70;100.00;102476.44;5015138;28;20042;-32
2022/07/12 05:00:02;;;;;;;5.03;4.10;;;;;;;15.74;100.00;102481.19;5014803;28;20069;-33
2022/07/12 05:02:30;;;;;;;4.70;4.00;;;;;;;15.79;100.00;102483.09;5012425;28;20194;-34
2022/07/12 05:04:58;;;;;;;5.68;4.50;;;;;;;15.83;100.00;102484.19;5015049;28;20063;-37
2022/07/12 05:07:27;;;;;;;6.72;4.05;;;;;;;15.89;100.00;102485.84;5014644;28;20141;-33
2022/07/12 05:09:55;;;;;;;5.13;3.80;;;;;;;15.93;100.00;102484.13;5011395;28;20149;-34
2022/07/12 05:12:23;;;;;;;5.25;4.70;;;;;;;15.98;100.00;102484.09;5013668;28;20150;-32
2022/07/12 05:14:51;;;;;;;4.65;3.95;;;;;;;16.03;100.00;102469.09;5013894;28;20058;-35
2022/07/12 05:17:18;;;;;;;7.22;4.90;;;;;;;16.06;100.00;102466.53;5013270;28;20061;-33
2022/07/12 05:19:46;;;;;;;4.72;4.07;;;;;;;16.14;100.00;102470.69;5013585;28;20083;-39
2022/07/12 05:22:14;;;;;;;6.00;4.78;;;;;;;16.21;100.00;102471.16;5012333;28;20400;-33
2022/07/12 05:24:43;;;;;;;8.48;6.13;;;;;;;16.31;100.00;102473.03;5013798;28;20156;-38
2022/07/12 05:27:11;;;;;;;6.60;5.50;;;;;;;16.39;100.00;102478.00;5013070;28;20050;-36
2022/07/12 05:29:39;;;;;;;6.25;5.47;;;;;;;16.49;100.00;102478.72;5008893;28;20133;-33
2022/07/12 05:32:07;;;;;;;5.75;4.90;;;;;;;16.61;100.00;102469.00;5005728;28;20046;-37
2022/07/12 05:34:38;;;;;;;7.53;5.47;;;;;;;16.75;100.00;102481.28;5013843;28;20073;-36
2022/07/12 05:37:06;;;;;;;7.05;5.63;;;;;;;16.86;100.00;102478.00;5011047;28;20049;-36
2022/07/12 05:39:34;;;;;;;6.80;5.68;;;;;;;16.99;100.00;102473.59;5012155;28;20549;-38
2022/07/12 05:42:03;;;;;;;5.82;5.18;;;;;;;17.13;100.00;102474.53;5010751;28;20068;-39
2022/07/12 05:44:31;;;;;;;7.43;5.35;;;;;;;17.25;100.00;102476.91;5011589;28;20057;-42
2022/07/12 05:46:59;;;;;;;6.75;5.43;;;;;;;17.35;100.00;102485.22;5013737;28;20133;-40
2022/07/12 05:49:27;;;;;;;7.45;5.13;;;;;;;17.45;100.00;102479.41;5014012;28;20147;-39
2022/07/12 05:54:40;;;;;;;6.47;5.63;;;;;;;17.64;100.00;102478.53;5011170;28;20052;-33
2022/07/12 05:57:10;;;;;;;4.95;4.45;;;;;;;17.72;100.00;102477.88;5013550;28;20056;-33
2022/07/12 05:59:38;;;;;;;5.22;4.72;;;;;;;17.78;100.00;102477.50;5014012;28;20081;-34
2022/07/12 06:02:07;;;;;;;6.15;4.55;;;;;;;17.86;100.00;102490.06;5014055;28;20037;-33
2022/07/12 06:04:35;;;;;;;6.55;5.25;;;;;;;17.90;100.00;102485.47;5012212;28;20108;-33
2022/07/12 06:07:03;;;;;;;6.72;5.45;;;;;;;17.93;100.00;102484.84;5013745;28;20204;-35
2022/07/12 06:09:31;;;;;;;5.45;4.85;;;;;;;17.95;100.00;102474.09;5013476;28;20482;-38
2022/07/12 06:11:59;;;;;;;5.97;5.18;;;;;;;17.99;100.00;102485.59;5013146;28;20046;-37
2022/07/12 06:14:28;;;;;;;5.78;4.57;;;;;;;18.03;100.00;102490.31;5013396;28;20042;-39
2022/07/12 06:16:56;;;;;;;6.35;5.07;;;;;;;18.06;100.00;102484.03;5013462;28;20133;-40
2022/07/12 06:19:25;;;;;;;6.53;4.72;;;;;;;18.07;100.00;102485.72;5012626;28;20054;-36
2022/07/12 06:21:52;;;;;;;4.90;4.32;;;;;;;18.09;100.00;102474.94;5013827;28;20058;-33
2022/07/12 06:24:20;;;;;;;7.13;5.28;;;;;;;18.11;100.00;102480.28;5012832;28;20058;-40
2022/07/12 06:26:48;;;;;;;8.07;5.85;;;;;;;18.19;100.00;102485.22;5013227;28;20054;-36
2022/07/12 06:29:16;;;;;;;5.70;5.00;;;;;;;18.23;100.00;102483.44;5013491;28;20071;-35
2022/07/12 06:31:45;;;;;;;6.88;5.45;;;;;;;18.31;100.00;102479.06;5013190;28;20080;-32
2022/07/12 06:34:13;;;;;;;6.30;4.97;;;;;;;18.44;100.00;102479.06;5012633;28;20056;-42
2022/07/12 06:36:43;;;;;;;6.90;5.32;;;;;;;18.59;100.00;102481.63;5013437;28;20392;-44
2022/07/12 06:39:11;;;;;;;5.22;4.55;;;;;;;18.77;100.00;102482.69;5012851;28;20073;-39
2022/07/12 06:41:39;;;;;;;8.88;5.40;;;;;;;19.13;100.00;102484.72;5012790;28;20132;-38
2022/07/12 06:44:07;;;;;;;5.47;4.47;;;;;;;19.46;100.00;102485.34;5012900;28;20075;-40
2022/07/12 06:46:35;;;;;;;6.75;4.28;;;;;;;19.93;100.00;102486.75;5012348;28;20068;-39
2022/07/12 06:49:04;;;;;;;5.90;4.28;;;;;;;20.32;100.00;102483.13;5012977;28;20073;-35
2022/07/12 06:51:32;;;;;;;5.93;4.00;;;;;;;20.60;100.00;102483.78;5012964;28;20162;-42
2022/07/12 06:53:59;;;;;;;3.47;2.85;;;;;;;20.99;100.00;102480.06;5012049;28;20053;-34
2022/07/12 06:56:27;;;;;;;4.07;3.58;;;;;;;21.49;100.00;102477.66;5012883;28;20045;-43
2022/07/12 06:58:55;;;;;;;5.25;3.97;;;;;;;22.20;100.00;102482.91;5012614;28;20133;-32
2022/07/12 07:01:23;;;;;;;4.22;2.97;;;;;;;22.92;100.00;102477.09;5012432;28;20053;-33
2022/07/12 07:03:51;;;;;;;3.13;2.47;;;;;;;23.38;100.00;102478.13;5012925;28;20137;-34
2022/07/12 07:06:20;;;;;;;4.57;3.33;;;;;;;23.62;100.00;102471.72;5012413;28;20132;-36
2022/07/12 07:08:48;;;;;;;3.60;2.85;;;;;;;23.84;100.00;102467.66;4993302;28;20058;-34
2022/07/12 07:11:15;;;;;;;3.75;2.75;;;;;;;23.83;100.00;102461.13;5012219;28;20518;-40
2022/07/12 07:13:43;;;;;;;3.80;2.35;;;;;;;23.90;100.00;102463.41;5012664;28;20492;-35
2022/07/12 07:16:20;;;;;;;3.10;2.13;;;;;;;23.92;100.00;102456.19;5011466;28;20100;-35
2022/07/12 07:18:47;;;;;;;4.43;2.97;;;;;;;23.88;100.00;102460.09;5012894;28;20049;-33
2022/07/12 07:21:15;;;;;;;4.00;2.97;;;;;;;23.66;100.00;102462.13;5012030;28;20042;-35
2022/07/12 07:23:44;;;;;;;4.00;2.67;;;;;;;23.53;100.00;102460.44;5011883;28;20529;-37
2022/07/12 07:26:12;;;;;;;3.78;2.30;;;;;;;23.54;100.00;102459.25;5012219;28;20049;-33
2022/07/12 07:31:22;;;;;;;3.60;2.50;;;;;;;23.94;100.00;102453.81;5011950;28;20492;-35
2022/07/12 07:33:49;;;;;;;3.50;2.05;;;;;;;24.16;98.82;102457.44;5012646;28;20046;-35
2022/07/12 07:36:17;;;;;;;3.20;2.10;;;;;;;24.54;97.51;102454.31;5011677;28;20045;-34
2022/07/12 07:38:46;;;;;;;2.95;2.15;;;;;;;24.56;92.99;102463.34;5012728;28;20539;-36
2022/07/12 07:41:14;;;;;;;2.92;2.20;;;;;;;24.56;93.89;102467.03;5011989;28;20132;-35
2022/07/12 07:43:42;;;;;;;2.70;1.85;;;;;;;24.70;92.77;102472.38;5011983;28;20056;-36
2022/07/12 07:46:10;;;;;;;3.58;1.98;;;;;;;24.50;89.27;102465.59;5011849;28;20046;-41
2022/07/12 07:48:37;;;;;;;4.03;2.30;;;;;;;24.32;90.56;102472.72;5012126;28;20053;-34
2022/07/12 07:51:06;;;;;;;3.10;1.65;;;;;;;24.33;91.44;102471.53;5011418;28;20054;-45
2022/07/12 07:53:33;;;;;;;2.65;1.70;;;;;;;24.66;90.88;102480.00;5012126;28;20080;-35
2022/07/12 07:56:02;;;;;;;3.13;1.60;;;;;;;25.06;87.19;102475.25;5011897;28;20045;-39
2022/07/12 07:58:30;;;;;;;3.13;1.60;;;;;;;25.42;85.25;102482.91;5011539;28;20149;-36
2022/07/12 08:00:58;;;;;;;2.88;1.55;;;;;;;25.92;81.46;102480.72;5012169;28;20056;-37
2022/07/12 08:03:26;;;;;;;3.17;1.60;;;;;;;26.35;78.18;102477.88;5011692;28;20042;-38
2022/07/12 08:05:57;;;;;;;3.78;1.80;;;;;;;26.73;72.77;102482.13;5010713;28;20077;-35
2022/07/12 08:08:25;;;;;;;3.20;1.20;;;;;;;27.06;71.49;102488.28;5012157;28;20133;-36
2022/07/12 08:11:14;;;;;;;2.28;1.23;;;;;;;27.24;67.77;102473.53;4995304;28;20060;-38
2022/07/12 08:13:42;;;;;;;1.70;1.00;;;;;;;27.32;66.91;102475.38;5011539;28;20125;-37
2022/07/12 08:16:09;;;;;;;1.63;0.90;;;;;;;27.63;65.76;102469.53;5027161;28;20144;-38
2022/07/12 08:18:37;;;;;;;2.53;1.10;;;;;;;27.90;64.04;102472.53;5011202;28;20053;-41
2022/07/12 08:21:06;;;;;;;2.30;1.15;;;;;;;27.94;60.19;102480.03;5018518;28;20152;-38
2022/07/12 08:23:34;;;;;;;3.30;1.17;;;;;;;27.66;58.32;102468.78;5017885;28;20050;-35
2022/07/12 08:26:01;;;;;;;2.58;1.17;;;;;;;27.74;59.92;102467.72;5018048;28;20133;-43
2022/07/12 08:28:30;;;;;;;2.45;1.40;;;;;;;27.70;57.01;102460.25;5017963;28;20054;-37
2022/07/12 08:30:58;;;;;;;2.55;1.40;;;;;;;27.50;58.69;102459.41;5018411;28;20137;-38
2022/07/12 08:33:26;;;;;;;2.50;1.55;;;;;;;27.67;59.17;102469.63;5017644;28;20065;-33
2022/07/12 08:35:54;;;;;;;2.17;1.42;;;;;;;27.80;57.66;102465.38;5018353;28;20038;-42
2022/07/12 08:38:22;;;;;;;3.03;1.70;;;;;;;27.82;56.00;102485.91;5017765;28;20060;-39
2022/07/12 08:40:50;;;;;;;3.33;1.85;;;;;;;27.94;56.92;102480.03;5017813;28;20077;-40
2022/07/12 08:43:18;;;;;;;3.50;2.33;;;;;;;28.13;56.78;102485.72;5018107;28;20053;-40
2022/07/12 08:45:47;;;;;;;4.20;2.50;;;;;;;28.11;56.79;102482.41;5018194;28;20049;-38
2022/07/12 08:48:15;;;;;;;4.15;2.60;;;;;;;28.48;57.01;102489.66;5017420;28;20140;-40
2022/07/12 08:50:43;;;;;;;4.47;3.70;;;;;;;28.76;53.60;102481.56;5018242;28;20041;-35
2022/07/12 08:53:13;;;;;;;3.85;2.78;;;;;;;28.67;53.17;102501.09;5016997;28;20084;-37
2022/07/12 08:55:41;;;;;;;3.60;2.53;;;;;;;28.46;53.13;102485.13;5018148;28;20062;-37
2022/07/12 08:58:16;;;;;;;3.03;2.20;;;;;;;28.64;51.86;102488.31;5017871;28;20072;-38
2022/07/12 09:00:46;;;;;;;3.58;1.88;;;;;;;28.73;51.98;102479.44;5017615;28;20045;-39
2022/07/12 09:03:19;;;;;;;3.33;1.92;;;;;;;28.94;51.63;102482.72;5017780;28;20060;-38
2022/07/12 09:05:52;;;;;;;2.95;1.80;;;;;;;28.98;52.24;102480.69;5016861;28;20561;-36
2022/07/12 09:08:26;;;;;;;2.80;2.13;;;;;;;29.16;50.46;102478.13;5017597;28;20046;-40
2022/07/12 09:11:00;;;;;;;2.42;1.38;;;;;;;29.07;50.73;102484.13;5017748;28;20132;-38
2022/07/12 09:13:51;;;;;;;2.75;2.03;;;;;;;28.88;47.46;102483.41;5017696;28;20038;-36
2022/07/12 09:16:21;;;;;;;2.92;1.95;;;;;;;28.59;51.54;102482.88;5014137;28;20481;-38
2022/07/12 09:18:52;;;;;;;2.83;2.05;;;;;;;28.27;52.74;102490.09;5017661;28;20065;-40
2022/07/12 09:21:25;;;;;;;2.83;2.25;;;;;;;27.86;52.37;102495.44;5016333;28;20145;-40
2022/07/12 09:23:55;;;;;;;3.45;2.58;;;;;;;27.56;54.01;102492.31;5017578;28;20124;-40
2022/07/12 09:26:23;;;;;;;3.22;2.63;;;;;;;27.45;55.04;102494.09;5017277;28;20136;-38
2022/07/12 09:28:52;;;;;;;3.83;3.03;;;;;;;27.53;55.14;102487.31;5031863;28;20093;-38
2022/07/12 09:31:20;;;;;;;4.90;2.75;;;;;;;27.53;54.89;102495.94;5014554;28;20050;-39
2022/07/12 09:36:55;;;;;;;3.90;2.40;;;;;;;27.78;51.79;102488.69;5013847;28;20046;-39
2022/07/12 09:39:24;;;;;;;3.05;2.33;;;;;;;28.00;54.03;102487.09;5014351;28;20444;-38
2022/07/12 09:41:55;;;;;;;2.83;2.30;;;;;;;28.34;53.66;102493.94;5014419;28;20124;-38
2022/07/12 09:44:24;;;;;;;2.45;1.88;;;;;;;28.61;52.07;102483.34;5014009;28;20553;-38
2022/07/12 09:46:53;;;;;;;4.90;1.90;;;;;;;28.74;51.93;102483.97;5014376;28;20080;-43
2022/07/12 09:49:23;;;;;;;3.92;2.47;;;;;;;28.97;50.53;102487.69;5013511;28;20100;-38
2022/07/12 09:51:55;;;;;;;3.65;1.90;;;;;;;29.12;49.81;102483.81;5014247;28;20100;-40
2022/07/12 09:54:27;;;;;;;3.15;2.35;;;;;;;29.11;49.61;102487.91;5013857;28;20444;-42
2022/07/12 09:57:00;;;;;;;3.10;1.88;;;;;;;29.10;49.96;102491.16;5011005;28;20082;-37
2022/07/12 09:59:30;;;;;;;2.78;1.88;;;;;;;29.26;50.00;102490.97;4994972;28;20145;-42
2022/07/12 10:02:03;;;;;;;3.90;2.20;;;;;;;29.21;48.92;102494.19;5013040;28;20050;-37
2022/07/12 10:04:34;;;;;;;3.25;2.50;;;;;;;29.27;49.37;102495.50;5013954;28;20107;-38
2022/07/12 10:07:02;;;;;;;2.83;2.33;;;;;;;29.35;48.87;102503.88;5013708;28;20124;-37
2022/07/12 10:09:30;;;;;;;3.60;2.80;;;;;;;29.39;48.45;102509.66;5013849;28;20141;-40
2022/07/12 10:11:59;;;;;;;3.10;2.30;;;;;;;29.43;49.41;102504.81;5013126;28;20475;-40
2022/07/12 10:14:29;;;;;;;5.75;3.67;;;;;;;29.60;49.00;102504.22;5013858;28;20046;-37
2022/07/12 10:16:58;;;;;;;5.18;3.53;;;;;;;29.65;48.11;102495.25;5012972;28;20056;-37
2022/07/12 10:19:28;;;;;;;4.53;3.33;;;;;;;29.63;48.86;102508.38;5013472;28;20152;-41
2022/07/12 10:21:59;;;;;;;4.53;3.83;;;;;;;29.69;48.66;102506.81;5013521;28;20069;-37
2022/07/12 10:24:47;;;;;;;5.43;4.13;;;;;;;29.71;45.68;102508.09;5013673;28;20073;-37
2022/07/12 10:27:31;;;;;;;4.80;4.32;;;;;;;29.70;44.96;102511.34;5013521;28;20100;-37
2022/07/12 10:30:22;;;;;;;4.72;4.32;;;;;;;29.45;47.57;102506.09;5013766;28;20054;-42
2022/07/12 10:32:53;;;;;;;4.97;4.22;;;;;;;29.53;48.96;102521.41;5012699;28;20054;-40
2022/07/12 10:35:22;;;;;;;;;;;;;;;29.51;46.87;102526.72;5014058;28;20088;-40
2022/07/12 10:38:17;;;;;;;6.78;4.20;;;;;;;29.59;49.89;102521.88;5012837;28;20454;-39
2022/07/12 10:40:47;;;;;;;5.85;5.25;;;;;;;29.48;49.46;102525.44;5012797;28;20554;-42
2022/07/12 10:44:04;;;;;;;4.97;4.20;;;;;;;29.10;51.08;102526.50;5013001;28;20038;-38
2022/07/12 10:46:28;;;;;;;7.15;5.20;;;;;;;28.91;50.21;102514.25;4994714;28;20146;-37
2022/07/12 10:49:25;;;;;;;5.78;4.22;;;;;;;28.61;52.62;102523.56;5013177;28;20046;-38
2022/07/12 10:52:24;;;;;;;6.20;5.15;;;;;;;28.06;52.67;102520.03;5012772;28;20065;-36
2022/07/12 10:55:19;;;;;;;5.90;3.90;;;;;;;27.95;55.48;102524.72;4971452;28;20595;-35
2022/07/12 10:57:51;;;;;;;6.50;5.43;;;;;;;27.95;55.93;102516.13;5010651;28;20056;-38
2022/07/12 11:00:21;;;;;;;5.80;4.38;;;;;;;28.07;55.64;102512.25;5012577;28;20392;-38
2022/07/12 11:02:49;;;;;;;5.85;4.97;;;;;;;28.20;54.48;102498.56;5012916;28;20061;-37
2022/07/12 11:05:16;;;;;;;6.22;5.53;;;;;;;28.26;53.65;102495.03;5013085;28;20133;-38
2022/07/12 11:07:44;;;;;;;4.80;4.22;;;;;;;28.57;53.81;102485.34;5012377;28;20046;-34
2022/07/12 11:10:13;;;;;;;5.97;5.35;;;;;;;28.60;51.39;102481.69;5013218;28;20229;-39
2022/07/12 11:12:42;;;;;;;6.22;4.93;;;;;;;28.42;51.22;102475.63;5012491;28;20665;-33
2022/07/12 11:15:10;;;;;;;5.28;4.38;;;;;;;28.29;51.18;102487.69;5012167;28;20129;-34
2022/07/12 11:17:38;;;;;;;4.55;3.85;;;;;;;28.38;51.21;102491.94;5012987;28;20076;-35
2022/07/12 11:20:11;;;;;;;5.20;4.32;;;;;;;28.44;50.40;102498.22;5011895;28;20515;-38
2022/07/12 11:22:40;;;;;;;6.70;5.88;;;;;;;28.35;50.14;102489.88;5012240;28;20046;-38
2022/07/12 11:25:11;;;;;;;6.50;5.20;;;;;;;28.23;51.11;102500.69;5012422;28;20554;-37
2022/07/12 11:27:39;;;;;;;8.10;7.30;;;;;;;28.25;50.60;102498.28;5012209;28;20530;-33
2022/07/12 11:30:09;;;;;;;6.65;5.25;;;;;;;28.32;50.05;102498.41;5012008;28;20060;-33
2022/07/12 11:32:39;;;;;;;8.52;5.35;;;;;;;28.43;49.35;102487.94;5012350;28;20141;-34
2022/07/12 11:35:20;;;;;;;5.40;4.35;;;;;;;28.54;47.57;102480.38;5011884;28;20045;-34
2022/07/12 11:37:50;;;;;;;6.30;4.53;;;;;;;28.34;47.76;102473.03;4994017;28;20482;-35
2022/07/12 11:40:23;;;;;;;5.13;3.75;;;;;;;28.16;47.60;102480.44;5007435;28;20392;-37